createdAt,value
2018-09-29T00:00:43.398Z,1014.67
2018-09-29T00:01:43.387Z,1014.71
2018-09-29T00:02:43.375Z,1014.73
2018-09-29T00:03:43.365Z,1014.71
2018-09-29T00:04:43.353Z,1014.76
2018-09-29T00:05:43.343Z,1014.80
2018-09-29T00:06:43.332Z,1014.84
2018-09-29T00:07:43.322Z,1014.85
2018-09-29T00:08:43.310Z,1014.85
2018-09-29T00:09:43.298Z,1014.87
2018-09-29T00:10:43.287Z,1014.91
2018-09-29T00:11:43.278Z,1014.93
2018-09-29T00:12:43.270Z,1014.94
2018-09-29T00:13:43.260Z,1014.92
2018-09-29T00:14:43.246Z,1014.94
2018-09-29T00:15:43.237Z,1014.94
2018-09-29T00:16:43.225Z,1014.93
2018-09-29T00:17:43.213Z,1014.90
2018-09-29T00:18:43.203Z,1014.82
2018-09-29T00:19:43.193Z,1014.82
2018-09-29T00:20:43.183Z,1014.80
2018-09-29T00:21:43.172Z,1014.85
2018-09-29T00:22:43.161Z,1014.82
2018-09-29T00:23:43.148Z,1014.76
2018-09-29T00:24:43.139Z,1014.78
2018-09-29T00:25:43.128Z,1014.74
2018-09-29T00:26:43.119Z,1014.72
2018-09-29T00:27:43.106Z,1014.73
2018-09-29T00:28:43.097Z,1014.73
2018-09-29T00:29:43.084Z,1014.74
2018-09-29T00:30:43.074Z,1014.80
2018-09-29T00:31:43.060Z,1014.79
2018-09-29T00:32:43.051Z,1014.81
2018-09-29T00:33:43.039Z,1014.85
2018-09-29T00:34:43.029Z,1014.78
2018-09-29T00:35:43.018Z,1014.80
2018-09-29T00:36:43.006Z,1014.78
2018-09-29T00:37:42.997Z,1014.79
2018-09-29T00:38:42.985Z,1014.79
2018-09-29T00:39:42.974Z,1014.76
2018-09-29T00:40:42.964Z,1014.77
2018-09-29T00:41:42.953Z,1014.78
2018-09-29T00:42:42.943Z,1014.78
2018-09-29T00:43:42.932Z,1014.75
2018-09-29T00:44:42.926Z,1014.76
2018-09-29T00:45:42.921Z,1014.71
2018-09-29T00:46:42.900Z,1014.73
2018-09-29T00:47:42.891Z,1014.67
2018-09-29T00:48:42.877Z,1014.73
2018-09-29T00:49:42.870Z,1014.69
2018-09-29T00:50:42.856Z,1014.67
2018-09-29T00:51:42.852Z,1014.71
2018-09-29T00:52:42.834Z,1014.69
2018-09-29T00:53:42.823Z,1014.72
2018-09-29T00:54:42.814Z,1014.70
2018-09-29T00:55:42.805Z,1014.63
2018-09-29T00:56:42.793Z,1014.65
2018-09-29T00:57:42.781Z,1014.60
2018-09-29T00:58:42.772Z,1014.60
2018-09-29T00:59:42.761Z,1014.62
2018-09-29T01:00:42.749Z,1014.56
2018-09-29T01:01:42.740Z,1014.60
2018-09-29T01:02:42.729Z,1014.61
2018-09-29T01:03:42.719Z,1014.59
2018-09-29T01:04:42.705Z,1014.61
2018-09-29T01:05:42.694Z,1014.64
2018-09-29T01:06:42.686Z,1014.65
2018-09-29T01:07:42.673Z,1014.64
2018-09-29T01:08:42.664Z,1014.64
2018-09-29T01:09:42.654Z,1014.63
2018-09-29T01:10:42.646Z,1014.60
2018-09-29T01:11:42.631Z,1014.59
2018-09-29T01:12:42.621Z,1014.59
2018-09-29T01:13:42.611Z,1014.62
2018-09-29T01:14:42.597Z,1014.61
2018-09-29T01:15:42.590Z,1014.66
2018-09-29T01:16:42.580Z,1014.69
2018-09-29T01:17:42.567Z,1014.76
2018-09-29T01:18:42.557Z,1014.74
2018-09-29T01:19:42.546Z,1014.74
2018-09-29T01:20:42.536Z,1014.75
2018-09-29T01:21:42.527Z,1014.73
2018-09-29T01:22:42.512Z,1014.77
2018-09-29T01:23:42.503Z,1014.76
2018-09-29T01:24:42.492Z,1014.76
2018-09-29T01:25:42.482Z,1014.70
2018-09-29T01:26:42.468Z,1014.73
2018-09-29T01:27:42.462Z,1014.73
2018-09-29T01:28:42.460Z,1014.75
2018-09-29T01:29:42.438Z,1014.74
2018-09-29T01:30:42.428Z,1014.71
2018-09-29T01:31:42.416Z,1014.72
2018-09-29T01:32:42.404Z,1014.69
2018-09-29T01:33:42.395Z,1014.68
2018-09-29T01:34:42.382Z,1014.73
2018-09-29T01:35:42.374Z,1014.73
2018-09-29T01:36:42.363Z,1014.75
2018-09-29T01:37:42.352Z,1014.75
2018-09-29T01:38:42.340Z,1014.78
2018-09-29T01:39:42.330Z,1014.83
2018-09-29T01:40:42.321Z,1014.80
2018-09-29T01:41:42.310Z,1014.77
2018-09-29T01:42:42.299Z,1014.82
2018-09-29T01:43:42.293Z,1014.78
2018-09-29T01:44:42.275Z,1014.80
2018-09-29T01:45:42.266Z,1014.77
2018-09-29T01:46:42.260Z,1014.75
2018-09-29T01:47:42.245Z,1014.74
2018-09-29T01:48:42.235Z,1014.79
2018-09-29T01:49:42.226Z,1014.76
2018-09-29T01:50:42.210Z,1014.76
2018-09-29T01:51:42.203Z,1014.76
2018-09-29T01:52:42.191Z,1014.74
2018-09-29T01:53:42.181Z,1014.71
2018-09-29T01:54:42.171Z,1014.72
2018-09-29T01:55:42.160Z,1014.65
2018-09-29T01:56:42.148Z,1014.62
2018-09-29T01:57:42.136Z,1014.65
2018-09-29T01:58:42.126Z,1014.64
2018-09-29T01:59:42.117Z,1014.62
2018-09-29T02:00:42.106Z,1014.57
2018-09-29T02:01:42.096Z,1014.58
2018-09-29T02:02:42.083Z,1014.57
2018-09-29T02:03:42.071Z,1014.59
2018-09-29T02:04:42.061Z,1014.62
2018-09-29T02:05:42.051Z,1014.64
2018-09-29T02:06:42.042Z,1014.65
2018-09-29T02:07:42.028Z,1014.64
2018-09-29T02:08:42.018Z,1014.64
2018-09-29T02:09:42.009Z,1014.62
2018-09-29T02:10:41.998Z,1014.55
2018-09-29T02:11:41.986Z,1014.55
2018-09-29T02:12:41.977Z,1014.54
2018-09-29T02:13:41.964Z,1014.54
2018-09-29T02:14:41.954Z,1014.55
2018-09-29T02:15:41.944Z,1014.50
2018-09-29T02:16:41.933Z,1014.48
2018-09-29T02:17:41.921Z,1014.46
2018-09-29T02:18:41.910Z,1014.50
2018-09-29T02:19:41.899Z,1014.49
2018-09-29T02:20:41.890Z,1014.48
2018-09-29T02:21:41.880Z,1014.52
2018-09-29T02:22:41.867Z,1014.52
2018-09-29T02:23:41.857Z,1014.55
2018-09-29T02:24:41.846Z,1014.62
2018-09-29T02:25:41.836Z,1014.60
2018-09-29T02:26:41.824Z,1014.68
2018-09-29T02:27:41.817Z,1014.68
2018-09-29T02:28:41.857Z,1014.66
2018-09-29T02:29:41.791Z,1014.61
2018-09-29T02:30:41.782Z,1014.62
2018-09-29T02:31:41.772Z,1014.59
2018-09-29T02:32:41.767Z,1014.57
2018-09-29T02:33:41.753Z,1014.59
2018-09-29T02:34:41.739Z,1014.50
2018-09-29T02:35:41.758Z,1014.47
2018-09-29T02:36:41.718Z,1014.49
2018-09-29T02:37:41.705Z,1014.51
2018-09-29T02:38:41.697Z,1014.52
2018-09-29T02:39:41.685Z,1014.47
2018-09-29T02:40:41.672Z,1014.48
2018-09-29T02:41:41.664Z,1014.49
2018-09-29T02:42:41.654Z,1014.50
2018-09-29T02:43:41.643Z,1014.49
2018-09-29T02:44:41.631Z,1014.52
2018-09-29T02:45:41.621Z,1014.55
2018-09-29T02:46:41.611Z,1014.53
2018-09-29T02:47:41.604Z,1014.53
2018-09-29T02:48:41.588Z,1014.54
2018-09-29T02:49:41.576Z,1014.57
2018-09-29T02:50:41.567Z,1014.58
2018-09-29T02:51:41.555Z,1014.63
2018-09-29T02:52:41.545Z,1014.64
2018-09-29T02:53:41.533Z,1014.67
2018-09-29T02:54:41.523Z,1014.73
2018-09-29T02:55:41.511Z,1014.67
2018-09-29T02:56:41.501Z,1014.71
2018-09-29T02:57:41.502Z,1014.74
2018-09-29T02:58:41.485Z,1014.78
2018-09-29T02:59:41.470Z,1014.78
2018-09-29T03:00:41.461Z,1014.78
2018-09-29T03:01:41.449Z,1014.79
2018-09-29T03:02:41.437Z,1014.78
2018-09-29T03:03:41.427Z,1014.76
2018-09-29T03:04:41.416Z,1014.73
2018-09-29T03:05:41.405Z,1014.75
2018-09-29T03:06:41.393Z,1014.78
2018-09-29T03:07:41.381Z,1014.74
2018-09-29T03:08:41.372Z,1014.73
2018-09-29T03:09:41.362Z,1014.70
2018-09-29T03:10:41.353Z,1014.75
2018-09-29T03:11:41.343Z,1014.77
2018-09-29T03:12:41.331Z,1014.79
2018-09-29T03:13:41.326Z,1014.81
2018-09-29T03:14:41.307Z,1014.79
2018-09-29T03:15:41.300Z,1014.80
2018-09-29T03:16:41.288Z,1014.82
2018-09-29T03:17:41.277Z,1014.83
2018-09-29T03:18:41.265Z,1014.82
2018-09-29T03:19:41.255Z,1014.78
2018-09-29T03:20:41.247Z,1014.81
2018-09-29T03:21:41.234Z,1014.83
2018-09-29T03:22:41.223Z,1014.83
2018-09-29T03:23:41.212Z,1014.87
2018-09-29T03:24:41.200Z,1014.88
2018-09-29T03:25:41.192Z,1014.89
2018-09-29T03:26:41.181Z,1014.83
2018-09-29T03:27:41.169Z,1014.82
2018-09-29T03:28:41.157Z,1014.85
2018-09-29T03:29:41.148Z,1014.85
2018-09-29T03:30:41.139Z,1014.86
2018-09-29T03:31:41.246Z,1014.89
2018-09-29T03:32:41.115Z,1014.85
2018-09-29T03:33:41.104Z,1014.85
2018-09-29T03:34:41.094Z,1014.85
2018-09-29T03:35:41.082Z,1014.86
2018-09-29T03:36:41.087Z,1014.92
2018-09-29T03:37:41.065Z,1014.85
2018-09-29T03:38:41.052Z,1014.82
2018-09-29T03:39:41.041Z,1014.78
2018-09-29T03:40:41.031Z,1014.76
2018-09-29T03:41:41.119Z,1014.78
2018-09-29T03:42:41.008Z,1014.77
2018-09-29T03:43:41.000Z,1014.79
2018-09-29T03:44:40.986Z,1014.78
2018-09-29T03:45:40.976Z,1014.81
2018-09-29T03:46:40.968Z,1014.76
2018-09-29T03:47:40.955Z,1014.73
2018-09-29T03:48:40.947Z,1014.72
2018-09-29T03:49:40.938Z,1014.72
2018-09-29T03:50:40.922Z,1014.77
2018-09-29T03:51:40.913Z,1014.70
2018-09-29T03:52:40.902Z,1014.76
2018-09-29T03:53:40.965Z,1014.76
2018-09-29T03:54:40.881Z,1014.82
2018-09-29T03:55:40.873Z,1014.78
2018-09-29T03:56:40.859Z,1014.83
2018-09-29T03:57:40.847Z,1014.81
2018-09-29T03:58:40.838Z,1014.81
2018-09-29T03:59:40.828Z,1014.82
2018-09-29T04:00:40.816Z,1014.79
2018-09-29T04:01:40.804Z,1014.77
2018-09-29T04:02:40.794Z,1014.75
2018-09-29T04:03:40.786Z,1014.78
2018-09-29T04:04:40.774Z,1014.75
2018-09-29T04:05:40.763Z,1014.71
2018-09-29T04:06:40.751Z,1014.70
2018-09-29T04:07:40.742Z,1014.72
2018-09-29T04:08:40.732Z,1014.74
2018-09-29T04:09:40.719Z,1014.71
2018-09-29T04:10:40.708Z,1014.67
2018-09-29T04:11:40.702Z,1014.67
2018-09-29T04:12:40.693Z,1014.66
2018-09-29T04:13:40.698Z,1014.71
2018-09-29T04:14:40.667Z,1014.72
2018-09-29T04:15:40.656Z,1014.72
2018-09-29T04:16:40.648Z,1014.70
2018-09-29T04:17:40.636Z,1014.77
2018-09-29T04:18:40.623Z,1014.77
2018-09-29T04:19:40.613Z,1014.76
2018-09-29T04:20:40.603Z,1014.76
2018-09-29T04:21:40.594Z,1014.73
2018-09-29T04:22:40.581Z,1014.75
2018-09-29T04:23:40.570Z,1014.75
2018-09-29T04:24:40.560Z,1014.71
2018-09-29T04:25:40.553Z,1014.74
2018-09-29T04:26:40.537Z,1014.72
2018-09-29T04:27:40.526Z,1014.72
2018-09-29T04:28:40.519Z,1014.78
2018-09-29T04:29:40.507Z,1014.77
2018-09-29T04:30:40.494Z,1014.76
2018-09-29T04:31:40.486Z,1014.74
2018-09-29T04:32:40.475Z,1014.76
2018-09-29T04:33:40.464Z,1014.76
2018-09-29T04:34:40.451Z,1014.73
2018-09-29T04:35:40.441Z,1014.76
2018-09-29T04:36:40.431Z,1014.78
2018-09-29T04:37:40.419Z,1014.80
2018-09-29T04:38:40.411Z,1014.80
2018-09-29T04:39:40.403Z,1014.84
2018-09-29T04:40:40.387Z,1014.81
2018-09-29T04:41:40.378Z,1014.78
2018-09-29T04:42:40.364Z,1014.76
2018-09-29T04:43:40.357Z,1014.75
2018-09-29T04:44:40.343Z,1014.75
2018-09-29T04:45:40.334Z,1014.76
2018-09-29T04:46:40.323Z,1014.77
2018-09-29T04:47:40.314Z,1014.76
2018-09-29T04:48:40.304Z,1014.73
2018-09-29T04:49:40.291Z,1014.73
2018-09-29T04:50:40.280Z,1014.73
2018-09-29T04:51:40.276Z,1014.78
2018-09-29T04:52:40.259Z,1014.74
2018-09-29T04:53:40.247Z,1014.79
2018-09-29T04:54:40.242Z,1014.82
2018-09-29T04:55:40.227Z,1014.82
2018-09-29T04:56:40.215Z,1014.82
2018-09-29T04:57:40.205Z,1014.89
2018-09-29T04:58:40.196Z,1014.81
2018-09-29T04:59:40.185Z,1014.86
2018-09-29T05:00:40.172Z,1014.81
2018-09-29T05:01:40.166Z,1014.85
2018-09-29T05:02:40.153Z,1014.83
2018-09-29T05:03:40.141Z,1014.82
2018-09-29T05:04:40.132Z,1014.81
2018-09-29T05:05:40.121Z,1014.81
2018-09-29T05:06:40.111Z,1014.83
2018-09-29T05:07:40.097Z,1014.82
2018-09-29T05:08:40.088Z,1014.85
2018-09-29T05:09:40.078Z,1014.83
2018-09-29T05:10:40.065Z,1014.79
2018-09-29T05:11:40.061Z,1014.82
2018-09-29T05:12:40.046Z,1014.85
2018-09-29T05:13:40.036Z,1014.87
2018-09-29T05:14:40.023Z,1014.90
2018-09-29T05:15:40.014Z,1014.87
2018-09-29T05:16:40.000Z,1014.90
2018-09-29T05:17:39.993Z,1014.90
2018-09-29T05:18:39.979Z,1014.89
2018-09-29T05:19:39.972Z,1014.95
2018-09-29T05:20:39.958Z,1014.97
2018-09-29T05:21:39.951Z,1014.94
2018-09-29T05:22:39.937Z,1014.89
2018-09-29T05:23:39.929Z,1014.91
2018-09-29T05:24:39.920Z,1014.88
2018-09-29T05:25:39.913Z,1014.88
2018-09-29T05:26:39.897Z,1014.92
2018-09-29T05:27:39.882Z,1014.94
2018-09-29T05:28:39.875Z,1014.93
2018-09-29T05:29:39.866Z,1014.97
2018-09-29T05:30:39.854Z,1014.94
2018-09-29T05:31:39.843Z,1014.97
2018-09-29T05:32:39.835Z,1015.01
2018-09-29T05:33:39.819Z,1014.98
2018-09-29T05:34:39.813Z,1014.96
2018-09-29T05:35:39.799Z,1015.00
2018-09-29T05:36:39.789Z,1014.99
2018-09-29T05:37:39.779Z,1015.00
2018-09-29T05:38:39.766Z,1014.99
2018-09-29T05:39:39.754Z,1015.03
2018-09-29T05:40:39.744Z,1015.01
2018-09-29T05:41:39.739Z,1014.95
2018-09-29T05:42:39.724Z,1014.98
2018-09-29T05:43:39.711Z,1014.97
2018-09-29T05:44:39.701Z,1014.94
2018-09-29T05:45:39.692Z,1014.99
2018-09-29T05:46:39.681Z,1014.98
2018-09-29T05:47:39.669Z,1014.99
2018-09-29T05:48:39.659Z,1014.98
2018-09-29T05:49:39.650Z,1015.00
2018-09-29T05:50:39.639Z,1015.05
2018-09-29T05:51:39.626Z,1015.10
2018-09-29T05:52:39.617Z,1015.07
2018-09-29T05:53:39.605Z,1015.09
2018-09-29T05:54:39.595Z,1015.10
2018-09-29T05:55:39.583Z,1015.10
2018-09-29T05:56:39.575Z,1015.11
2018-09-29T05:57:39.564Z,1015.10
2018-09-29T05:58:39.559Z,1015.14
2018-09-29T05:59:39.544Z,1015.18
2018-09-29T06:00:39.555Z,1015.18
2018-09-29T06:01:39.523Z,1015.21
2018-09-29T06:02:39.516Z,1015.22
2018-09-29T06:03:39.503Z,1015.23
2018-09-29T06:04:39.491Z,1015.20
2018-09-29T06:05:39.584Z,1015.20
2018-09-29T06:06:39.469Z,1015.21
2018-09-29T06:07:39.487Z,1015.23
2018-09-29T06:08:39.445Z,1015.24
2018-09-29T06:09:39.439Z,1015.24
2018-09-29T06:10:39.422Z,1015.24
2018-09-29T06:11:39.413Z,1015.21
2018-09-29T06:12:39.403Z,1015.22
2018-09-29T06:13:39.392Z,1015.29
2018-09-29T06:14:39.383Z,1015.28
2018-09-29T06:15:39.372Z,1015.28
2018-09-29T06:16:39.363Z,1015.28
2018-09-29T06:17:39.359Z,1015.27
2018-09-29T06:18:39.338Z,1015.28
2018-09-29T06:19:39.331Z,1015.30
2018-09-29T06:20:39.319Z,1015.30
2018-09-29T06:21:39.308Z,1015.28
2018-09-29T06:22:39.296Z,1015.28
2018-09-29T06:23:39.284Z,1015.32
2018-09-29T06:24:39.273Z,1015.26
2018-09-29T06:25:39.265Z,1015.24
2018-09-29T06:26:39.251Z,1015.27
2018-09-29T06:27:39.243Z,1015.29
2018-09-29T06:28:39.230Z,1015.29
2018-09-29T06:29:39.224Z,1015.27
2018-09-29T06:30:39.212Z,1015.26
2018-09-29T06:31:39.199Z,1015.30
2018-09-29T06:32:39.189Z,1015.32
2018-09-29T06:33:39.177Z,1015.30
2018-09-29T06:34:39.166Z,1015.29
2018-09-29T06:35:39.157Z,1015.30
2018-09-29T06:36:39.167Z,1015.36
2018-09-29T06:37:39.135Z,1015.33
2018-09-29T06:38:39.123Z,1015.34
2018-09-29T06:39:39.113Z,1015.31
2018-09-29T06:40:39.108Z,1015.29
2018-09-29T06:41:39.092Z,1015.25
2018-09-29T06:42:39.080Z,1015.28
2018-09-29T06:43:39.071Z,1015.24
2018-09-29T06:44:39.061Z,1015.29
2018-09-29T06:45:39.050Z,1015.20
2018-09-29T06:46:39.038Z,1015.17
2018-09-29T06:47:39.057Z,1015.22
2018-09-29T06:48:39.017Z,1015.23
2018-09-29T06:49:39.009Z,1015.24
2018-09-29T06:50:38.997Z,1015.23
2018-09-29T06:51:39.040Z,1015.22
2018-09-29T06:52:38.974Z,1015.17
2018-09-29T06:53:38.965Z,1015.21
2018-09-29T06:54:38.999Z,1015.22
2018-09-29T06:55:38.940Z,1015.16
2018-09-29T06:56:38.929Z,1015.08
2018-09-29T06:57:38.935Z,1015.13
2018-09-29T06:58:38.949Z,1015.10
2018-09-29T06:59:38.897Z,1015.11
2018-09-29T07:00:38.887Z,1015.06
2018-09-29T07:01:38.879Z,1015.06
2018-09-29T07:02:38.864Z,1015.05
2018-09-29T07:03:38.855Z,1014.98
2018-09-29T07:04:38.845Z,1015.01
2018-09-29T07:05:38.834Z,1014.96
2018-09-29T07:06:38.821Z,1015.03
2018-09-29T07:07:38.811Z,1014.98
2018-09-29T07:08:38.800Z,1015.04
2018-09-29T07:09:38.793Z,1015.07
2018-09-29T07:10:38.779Z,1015.09
2018-09-29T07:11:38.767Z,1015.08
2018-09-29T07:12:38.756Z,1015.12
2018-09-29T07:13:38.745Z,1015.07
2018-09-29T07:14:38.736Z,1015.06
2018-09-29T07:15:38.725Z,1015.06
2018-09-29T07:16:38.714Z,1015.06
2018-09-29T07:17:38.704Z,1015.07
2018-09-29T07:18:38.694Z,1015.11
2018-09-29T07:19:38.680Z,1015.06
2018-09-29T07:20:38.668Z,1015.13
2018-09-29T07:21:38.743Z,1015.12
2018-09-29T07:22:38.648Z,1015.10
2018-09-29T07:23:38.638Z,1015.07
2018-09-29T07:24:38.628Z,1015.13
2018-09-29T07:25:38.670Z,1015.10
2018-09-29T07:26:38.655Z,1015.11
2018-09-29T07:27:38.596Z,1015.08
2018-09-29T07:28:38.585Z,1015.08
2018-09-29T07:29:38.572Z,1015.06
2018-09-29T07:30:38.565Z,1015.06
2018-09-29T07:31:38.550Z,1015.04
2018-09-29T07:32:38.539Z,1015.04
2018-09-29T07:33:38.529Z,1014.99
2018-09-29T07:34:38.519Z,1014.98
2018-09-29T07:35:38.509Z,1014.96
2018-09-29T07:36:38.498Z,1014.94
2018-09-29T07:37:38.487Z,1014.95
2018-09-29T07:38:38.475Z,1015.00
2018-09-29T07:39:38.464Z,1014.99
2018-09-29T07:40:38.457Z,1015.00
2018-09-29T07:41:38.444Z,1015.01
2018-09-29T07:42:38.437Z,1015.01
2018-09-29T07:43:38.482Z,1015.00
2018-09-29T07:44:38.410Z,1014.96
2018-09-29T07:45:38.400Z,1014.97
2018-09-29T07:46:38.388Z,1014.97
2018-09-29T07:47:38.379Z,1014.96
2018-09-29T07:48:38.365Z,1014.95
2018-09-29T07:49:38.355Z,1014.98
2018-09-29T07:50:38.346Z,1014.91
2018-09-29T07:51:38.334Z,1014.91
2018-09-29T07:52:38.324Z,1014.93
2018-09-29T07:53:38.313Z,1014.90
2018-09-29T07:54:38.343Z,1014.89
2018-09-29T07:55:38.290Z,1014.87
2018-09-29T07:56:38.279Z,1014.88
2018-09-29T07:57:38.269Z,1014.85
2018-09-29T07:58:38.259Z,1014.83
2018-09-29T07:59:38.249Z,1014.85
2018-09-29T08:00:38.236Z,1014.90
2018-09-29T08:01:38.226Z,1014.85
2018-09-29T08:02:38.215Z,1014.87
2018-09-29T08:03:38.205Z,1014.86
2018-09-29T08:04:38.193Z,1014.84
2018-09-29T08:05:38.181Z,1014.84
2018-09-29T08:06:38.175Z,1014.83
2018-09-29T08:07:38.160Z,1014.85
2018-09-29T08:08:38.150Z,1014.82
2018-09-29T08:09:38.139Z,1014.80
2018-09-29T08:10:38.127Z,1014.77
2018-09-29T08:11:38.118Z,1014.78
2018-09-29T08:12:38.107Z,1014.79
2018-09-29T08:13:38.099Z,1014.83
2018-09-29T08:14:38.090Z,1014.81
2018-09-29T08:15:38.074Z,1014.80
2018-09-29T08:16:38.063Z,1014.80
2018-09-29T08:17:38.053Z,1014.78
2018-09-29T08:18:38.040Z,1014.84
2018-09-29T08:19:38.031Z,1014.79
2018-09-29T08:20:38.017Z,1014.80
2018-09-29T08:21:38.007Z,1014.81
2018-09-29T08:22:37.997Z,1014.80
2018-09-29T08:23:37.985Z,1014.82
2018-09-29T08:24:37.977Z,1014.77
2018-09-29T08:25:37.968Z,1014.75
2018-09-29T08:26:37.955Z,1014.69
2018-09-29T08:27:37.943Z,1014.68
2018-09-29T08:28:37.932Z,1014.72
2018-09-29T08:29:37.921Z,1014.71
2018-09-29T08:30:37.911Z,1014.60
2018-09-29T08:31:37.902Z,1014.66
2018-09-29T08:32:37.889Z,1014.63
2018-09-29T08:33:37.878Z,1014.65
2018-09-29T08:34:37.866Z,1014.63
2018-09-29T08:35:37.855Z,1014.60
2018-09-29T08:36:37.845Z,1014.65
2018-09-29T08:37:37.870Z,1014.64
2018-09-29T08:38:37.823Z,1014.59
2018-09-29T08:39:37.816Z,1014.58
2018-09-29T08:40:37.803Z,1014.55
2018-09-29T08:41:37.790Z,1014.58
2018-09-29T08:42:37.780Z,1014.56
2018-09-29T08:43:37.767Z,1014.51
2018-09-29T08:44:37.760Z,1014.47
2018-09-29T08:45:37.747Z,1014.50
2018-09-29T08:46:37.768Z,1014.51
2018-09-29T08:47:37.731Z,1014.49
2018-09-29T08:48:37.716Z,1014.44
2018-09-29T08:49:37.704Z,1014.44
2018-09-29T08:50:37.695Z,1014.43
2018-09-29T08:51:37.686Z,1014.39
2018-09-29T08:52:37.671Z,1014.40
2018-09-29T08:53:37.692Z,1014.39
2018-09-29T08:54:37.649Z,1014.37
2018-09-29T08:55:37.638Z,1014.32
2018-09-29T08:56:37.629Z,1014.31
2018-09-29T08:57:37.619Z,1014.36
2018-09-29T08:58:37.610Z,1014.32
2018-09-29T08:59:37.595Z,1014.37
2018-09-29T09:00:37.586Z,1014.38
2018-09-29T09:01:37.578Z,1014.35
2018-09-29T09:02:37.561Z,1014.32
2018-09-29T09:03:37.553Z,1014.39
2018-09-29T09:04:37.540Z,1014.34
2018-09-29T09:05:37.539Z,1014.31
2018-09-29T09:06:37.522Z,1014.35
2018-09-29T09:07:37.508Z,1014.29
2018-09-29T09:08:37.498Z,1014.34
2018-09-29T09:09:37.490Z,1014.33
2018-09-29T09:10:37.476Z,1014.34
2018-09-29T09:11:37.468Z,1014.33
2018-09-29T09:12:37.455Z,1014.31
2018-09-29T09:13:37.442Z,1014.29
2018-09-29T09:14:37.432Z,1014.29
2018-09-29T09:15:37.422Z,1014.27
2018-09-29T09:16:37.412Z,1014.28
2018-09-29T09:17:37.402Z,1014.28
2018-09-29T09:18:37.391Z,1014.28
2018-09-29T09:19:37.381Z,1014.30
2018-09-29T09:20:37.370Z,1014.32
2018-09-29T09:21:37.357Z,1014.37
2018-09-29T09:22:37.350Z,1014.39
2018-09-29T09:23:37.344Z,1014.40
2018-09-29T09:24:37.327Z,1014.45
2018-09-29T09:25:37.317Z,1014.41
2018-09-29T09:26:37.305Z,1014.40
2018-09-29T09:27:37.292Z,1014.42
2018-09-29T09:28:37.285Z,1014.40
2018-09-29T09:29:37.272Z,1014.34
2018-09-29T09:30:37.259Z,1014.41
2018-09-29T09:31:37.251Z,1014.37
2018-09-29T09:32:37.237Z,1014.37
2018-09-29T09:33:37.227Z,1014.30
2018-09-29T09:34:37.218Z,1014.31
2018-09-29T09:35:37.209Z,1014.30
2018-09-29T09:36:37.196Z,1014.30
2018-09-29T09:37:37.189Z,1014.29
2018-09-29T09:38:37.175Z,1014.30
2018-09-29T09:39:37.164Z,1014.28
2018-09-29T09:40:37.152Z,1014.27
2018-09-29T09:41:37.140Z,1014.30
2018-09-29T09:42:37.134Z,1014.29
2018-09-29T09:43:37.229Z,1014.23
2018-09-29T09:44:37.113Z,1014.21
2018-09-29T09:45:37.098Z,1014.17
2018-09-29T09:46:37.088Z,1014.16
2018-09-29T09:47:37.082Z,1014.10
2018-09-29T09:48:37.071Z,1014.10
2018-09-29T09:49:37.116Z,1014.04
2018-09-29T09:50:37.045Z,1014.06
2018-09-29T09:51:37.037Z,1013.99
2018-09-29T09:52:37.025Z,1013.97
2018-09-29T09:53:37.011Z,1014.01
2018-09-29T09:54:37.001Z,1013.96
2018-09-29T09:55:36.992Z,1013.91
2018-09-29T09:56:36.979Z,1013.93
2018-09-29T09:57:36.975Z,1013.84
2018-09-29T09:58:36.959Z,1013.86
2018-09-29T09:59:36.947Z,1013.84
2018-09-29T10:00:36.937Z,1013.84
2018-09-29T10:01:36.928Z,1013.88
2018-09-29T10:02:36.916Z,1013.88
2018-09-29T10:03:36.905Z,1013.84
2018-09-29T10:04:36.896Z,1013.88
2018-09-29T10:05:36.885Z,1013.87
2018-09-29T10:06:36.995Z,1013.83
2018-09-29T10:07:36.861Z,1013.86
2018-09-29T10:08:36.856Z,1013.90
2018-09-29T10:09:36.839Z,1013.90
2018-09-29T10:10:36.828Z,1013.88
2018-09-29T10:11:36.819Z,1013.80
2018-09-29T10:12:36.805Z,1013.78
2018-09-29T10:13:36.797Z,1013.73
2018-09-29T10:14:36.809Z,1013.72
2018-09-29T10:15:36.774Z,1013.75
2018-09-29T10:16:36.764Z,1013.67
2018-09-29T10:17:36.897Z,1013.66
2018-09-29T10:18:36.742Z,1013.66
2018-09-29T10:19:36.732Z,1013.66
2018-09-29T10:20:36.720Z,1013.63
2018-09-29T10:21:36.711Z,1013.61
2018-09-29T10:22:36.699Z,1013.56
2018-09-29T10:23:36.687Z,1013.50
2018-09-29T10:24:36.677Z,1013.48
2018-09-29T10:25:36.664Z,1013.47
2018-09-29T10:26:36.655Z,1013.55
2018-09-29T10:27:36.649Z,1013.48
2018-09-29T10:28:36.633Z,1013.48
2018-09-29T10:29:36.622Z,1013.39
2018-09-29T10:30:36.614Z,1013.35
2018-09-29T10:31:36.599Z,1013.38
2018-09-29T10:32:36.589Z,1013.40
2018-09-29T10:33:36.625Z,1013.41
2018-09-29T10:34:36.567Z,1013.38
2018-09-29T10:35:36.557Z,1013.36
2018-09-29T10:36:36.546Z,1013.35
2018-09-29T10:37:36.536Z,1013.36
2018-09-29T10:38:36.524Z,1013.35
2018-09-29T10:39:36.516Z,1013.30
2018-09-29T10:40:36.504Z,1013.28
2018-09-29T10:41:36.492Z,1013.32
2018-09-29T10:42:36.482Z,1013.29
2018-09-29T10:43:36.471Z,1013.27
2018-09-29T10:44:36.459Z,1013.18
2018-09-29T10:45:36.449Z,1013.21
2018-09-29T10:46:36.437Z,1013.17
2018-09-29T10:47:36.430Z,1013.20
2018-09-29T10:48:36.417Z,1013.19
2018-09-29T10:49:36.405Z,1013.21
2018-09-29T10:50:36.395Z,1013.19
2018-09-29T10:51:36.384Z,1013.15
2018-09-29T10:52:36.372Z,1013.08
2018-09-29T10:53:36.361Z,1013.09
2018-09-29T10:54:36.351Z,1013.06
2018-09-29T10:55:36.341Z,1013.04
2018-09-29T10:56:36.329Z,1013.04
2018-09-29T10:57:36.318Z,1013.03
2018-09-29T10:58:36.306Z,1013.02
2018-09-29T10:59:36.298Z,1012.93
2018-09-29T11:00:36.286Z,1012.91
2018-09-29T11:01:36.276Z,1012.90
2018-09-29T11:02:36.374Z,1012.90
2018-09-29T11:03:36.257Z,1012.90
2018-09-29T11:04:36.251Z,1012.92
2018-09-29T11:05:36.240Z,1012.87
2018-09-29T11:06:36.221Z,1012.82
2018-09-29T11:07:36.211Z,1012.83
2018-09-29T11:08:36.201Z,1012.76
2018-09-29T11:09:36.190Z,1012.76
2018-09-29T11:10:36.177Z,1012.75
2018-09-29T11:11:36.168Z,1012.80
2018-09-29T11:12:36.156Z,1012.74
2018-09-29T11:13:36.145Z,1012.79
2018-09-29T11:14:36.136Z,1012.75
2018-09-29T11:15:36.129Z,1012.75
2018-09-29T11:16:36.114Z,1012.70
2018-09-29T11:17:36.102Z,1012.70
2018-09-29T11:18:36.094Z,1012.65
2018-09-29T11:19:36.083Z,1012.66
2018-09-29T11:20:36.072Z,1012.68
2018-09-29T11:21:36.059Z,1012.64
2018-09-29T11:22:36.049Z,1012.65
2018-09-29T11:23:36.038Z,1012.62
2018-09-29T11:24:36.028Z,1012.62
2018-09-29T11:25:36.015Z,1012.58
2018-09-29T11:26:36.005Z,1012.56
2018-09-29T11:27:36.029Z,1012.54
2018-09-29T11:28:35.983Z,1012.51
2018-09-29T11:29:35.974Z,1012.48
2018-09-29T11:30:35.960Z,1012.47
2018-09-29T11:31:35.953Z,1012.47
2018-09-29T11:32:35.942Z,1012.50
2018-09-29T11:33:35.929Z,1012.46
2018-09-29T11:34:35.920Z,1012.47
2018-09-29T11:35:35.907Z,1012.42
2018-09-29T11:36:35.897Z,1012.41
2018-09-29T11:37:35.886Z,1012.35
2018-09-29T11:38:35.875Z,1012.36
2018-09-29T11:39:35.864Z,1012.36
2018-09-29T11:40:35.866Z,1012.35
2018-09-29T11:41:35.842Z,1012.35
2018-09-29T11:42:35.834Z,1012.32
2018-09-29T11:43:35.824Z,1012.33
2018-09-29T11:44:35.864Z,1012.32
2018-09-29T11:45:35.801Z,1012.28
2018-09-29T11:46:35.788Z,1012.23
2018-09-29T11:47:35.779Z,1012.23
2018-09-29T11:48:35.767Z,1012.17
2018-09-29T11:49:35.760Z,1012.13
2018-09-29T11:50:35.745Z,1012.14
2018-09-29T11:51:35.738Z,1012.07
2018-09-29T11:52:35.725Z,1012.10
2018-09-29T11:53:35.715Z,1012.08
2018-09-29T11:54:35.706Z,1012.06
2018-09-29T11:55:35.693Z,1012.00
2018-09-29T11:56:35.679Z,1012.00
2018-09-29T11:57:35.670Z,1011.93
2018-09-29T11:58:35.664Z,1011.90
2018-09-29T11:59:35.647Z,1011.91
2018-09-29T12:00:35.637Z,1011.88
2018-09-29T12:01:35.628Z,1011.88
2018-09-29T12:02:35.615Z,1011.87
2018-09-29T12:03:35.604Z,1011.84
2018-09-29T12:04:35.594Z,1011.84
2018-09-29T12:05:35.583Z,1011.81